Pagina principale
METAR-TAF:

METAR-TAF

Aeroporti :

Cannes, Francia

latitudine: 43-33N, longitudine: 006-57E, altezza: 3 m

Osservazione

Il bollettino è stato emesso 28 minuti fa, alle 11:00 UTC
Vento 4 kt da sud/sud-est, variando fra est e sud
Temperature 19°C
Umidità 64%
Pressione 1020 hPa
Visibilità 10 km o più
nessuna nube inferiore a 1500 m e nessun cumulonembo

METAR: LFMD 261100Z AUTO 15004KT 100V190 CAVOK 19/12 Q1020 NOSIG

Ora: 13:28 (11:28 UTC)

Previsione

Il bollettino è stato emesso 3 ore e 28 minuti fa, alle 08:00 UTC
Previsione valida dal 26 alle 09 UTC al 27 alle 09 UTC
Vento 4 kt da direzioni variabili
Visibilità 10 km o più
Poco nuvoloso ad un'altezza di 3000 ft
Evoluzione graduale
dal 26 alle 09 UTC al 26 alle 11 UTC
Vento 10 kt da sud/sud-est
Evoluzione graduale
dal 26 alle 16 UTC al 26 alle 18 UTC
Vento 4 kt da direzioni variabili

TAF: LFMD 260800Z 2609/2709 VRB04KT 9999 FEW030 BECMG 2609/2611 16010KT NSC BECMG 2616/2618 VRB04KT

Osservazioni e previsioni meteorologiche di più di 4000 aeroporti (messaggi METAR e TAF).

Le stazioni disponibili sono rappresentate dai dischi gialli e rossi sulla carta.

Puntare il mouse per vedere il nome della stazione.

Clicca sopra per visualizzare le osservazioni e previsioni meteorologiche.

Per cambiare la mappa : fare clic sui pulsanti verdi con una croce nera per ingrandire, il pulsante verde con un trattino per diminuire, o sulla freccia verde per le mappe adiacenti.


METAR-TAF: